Time;durP1;ratioP1;P1;durP2;ratioP2;P2;SDS_P1;SDS_P2;PMS_P1;PMS_P2;Temp;Humidity;BMP_temperature;BMP_pressure;BME280_temperature;BME280_humidity;BME280_pressure;Samples;Min_cycle;Max_cycle;Signal;HPM_P1;HPM_P2
2023/12/11 00:01:24;;;;;;;46.22;6.57;;;;;;;;;;5063469;28;20047;-44
2023/12/11 00:03:50;;;;;;;42.83;6.40;;;;;;;;;;5081294;28;20528;-45
2023/12/11 00:06:16;;;;;;;44.00;7.05;;;;;;;;;;5088703;28;20051;-46
2023/12/11 00:08:42;;;;;;;44.75;6.55;;;;;;;;;;5088166;28;20036;-46
2023/12/11 00:11:09;;;;;;;46.70;7.05;;;;;;;;;;5078875;28;20044;-47
2023/12/11 00:13:34;;;;;;;41.00;6.55;;;7.90;99.90;;;;;;5081850;28;20040;-45
2023/12/11 00:16:00;;;;;;;38.08;6.00;;;8.30;99.90;;;;;;5078375;28;20492;-45
2023/12/11 00:18:26;;;;;;;40.67;7.13;;;8.20;99.90;;;;;;5079951;28;20734;-46
2023/12/11 00:20:52;;;;;;;40.53;6.55;;;8.30;99.90;;;;;;5081596;28;20497;-50
2023/12/11 00:23:18;;;;;;;49.28;7.15;;;;;;;;;;5089414;28;20040;-46
2023/12/11 00:25:47;;;;;;;42.05;7.13;;;;;;;;;;5081493;28;20109;-46
2023/12/11 00:28:13;;;;;;;45.55;6.82;;;;;;;;;;5081630;28;20105;-46
2023/12/11 00:30:39;;;;;;;48.00;6.68;;;9.20;99.90;;;;;;5060158;28;20052;-45
2023/12/11 00:33:04;;;;;;;42.00;6.00;;;8.30;99.90;;;;;;5065502;28;20042;-48
2023/12/11 00:35:30;;;;;;;39.10;7.20;;;8.20;99.90;;;;;;5080411;28;20473;-45
2023/12/11 00:37:57;;;;;;;37.75;6.30;;;8.20;99.90;;;;;;5082462;28;20044;-46
2023/12/11 00:40:23;;;;;;;31.73;5.22;;;8.20;99.90;;;;;;5086950;28;20439;-45
2023/12/11 00:42:48;;;;;;;35.42;5.97;;;8.00;99.90;;;;;;5090545;28;20036;-46
2023/12/11 00:45:14;;;;;;;40.25;5.65;;;8.20;99.90;;;;;;5082877;28;20036;-47
2023/12/11 00:47:40;;;;;;;35.67;6.38;;;8.20;99.90;;;;;;5082700;28;20039;-46
2023/12/11 00:50:06;;;;;;;34.67;5.28;;;8.10;99.90;;;;;;5081953;28;20796;-46
2023/12/11 00:52:31;;;;;;;38.67;5.55;;;8.20;99.90;;;;;;5084403;28;20036;-49
2023/12/11 00:54:57;;;;;;;32.10;6.32;;;8.20;99.90;;;;;;5081963;28;20040;-45
2023/12/11 00:57:23;;;;;;;36.80;6.30;;;8.20;99.90;;;;;;5087588;28;20036;-46
2023/12/11 00:59:48;;;;;;;36.47;5.68;;;8.40;99.90;;;;;;5083960;28;20502;-46
2023/12/11 01:02:14;;;;;;;37.15;6.82;;;8.30;99.90;;;;;;5078562;28;21629;-46
2023/12/11 01:04:40;;;;;;;34.17;5.70;;;8.50;99.90;;;;;;5082606;28;20119;-45
2023/12/11 01:07:05;;;;;;;35.17;5.28;;;8.30;99.90;;;;;;5081372;28;20396;-47
2023/12/11 01:09:31;;;;;;;33.78;5.57;;;8.10;99.90;;;;;;5080114;28;20032;-45
2023/12/11 01:11:57;;;;;;;41.38;6.28;;;8.10;99.90;;;;;;5083347;28;20032;-46
2023/12/11 01:14:22;;;;;;;38.15;6.43;;;8.10;99.90;;;;;;5081195;28;20044;-46
2023/12/11 01:16:48;;;;;;;41.72;5.95;;;8.20;99.90;;;;;;5084018;28;20428;-45
2023/12/11 01:19:14;;;;;;;46.65;7.00;;;8.00;99.90;;;;;;5084050;28;20036;-46
2023/12/11 01:21:39;;;;;;;40.22;6.50;;;8.30;99.90;;;;;;5079007;28;21655;-46
2023/12/11 01:24:05;;;;;;;47.00;6.88;;;8.20;99.90;;;;;;5080204;28;20048;-45
2023/12/11 01:26:30;;;;;;;41.50;6.60;;;8.20;99.90;;;;;;5079994;28;20128;-47
2023/12/11 01:28:56;;;;;;;46.72;6.38;;;8.20;99.90;;;;;;5080435;28;20063;-46
2023/12/11 01:31:22;;;;;;;38.85;6.78;;;8.30;99.90;;;;;;5081084;28;20051;-46
2023/12/11 01:33:48;;;;;;;43.33;5.70;;;8.30;99.90;;;;;;5081211;28;20043;-48
2023/12/11 01:36:13;;;;;;;51.22;7.40;;;8.40;99.90;;;;;;5079379;28;20182;-46
2023/12/11 01:38:39;;;;;;;44.95;8.45;;;;;;;;;;5077936;28;20129;-47
2023/12/11 01:41:05;;;;;;;51.03;8.18;;;;;;;;;;5083138;28;20085;-48
2023/12/11 01:43:31;;;;;;;41.30;6.45;;;;;;;;;;5083679;28;20040;-45
2023/12/11 01:46:04;;;;;;;43.60;7.20;;;;;;;;;;5085248;28;20465;-46
2023/12/11 01:48:30;;;;;;;46.30;7.47;;;8.60;99.90;;;;;;5084423;28;20160;-46
2023/12/11 01:50:57;;;;;;;43.83;6.63;;;;;;;;;;5083823;28;20058;-46
2023/12/11 01:53:23;;;;;;;47.28;8.15;;;;;;;;;;5079457;28;20036;-48
2023/12/11 01:55:49;;;;;;;44.17;7.78;;;;;;;;;;5082299;28;20044;-45
2023/12/11 01:58:16;;;;;;;46.20;8.32;;;;;;;;;;5084232;28;20504;-46
2023/12/11 02:00:42;;;;;;;54.08;7.40;;;9.10;99.90;;;;;;5082795;28;20106;-47
2023/12/11 02:03:09;;;;;;;53.05;8.38;;;9.00;99.90;;;;;;5086887;28;20044;-45
2023/12/11 02:05:36;;;;;;;52.13;7.95;;;8.70;99.90;;;;;;5079984;28;20047;-49
2023/12/11 02:08:01;;;;;;;47.00;7.30;;;8.80;99.90;;;;;;5084822;28;20111;-46
2023/12/11 02:10:27;;;;;;;44.40;7.30;;;8.80;99.90;;;;;;5083086;28;20167;-46
2023/12/11 02:12:53;;;;;;;52.22;8.35;;;8.90;99.90;;;;;;5085334;28;20438;-45
2023/12/11 02:15:42;;;;;;;44.50;7.75;;;8.80;99.90;;;;;;5088596;28;20043;-47
2023/12/11 02:18:08;;;;;;;51.28;7.05;;;8.80;99.90;;;;;;5089222;28;20136;-46
2023/12/11 02:20:35;;;;;;;50.30;7.78;;;8.90;99.90;;;;;;5082875;28;20067;-45
2023/12/11 02:23:04;;;;;;;47.72;7.15;;;8.90;99.90;;;;;;5085494;28;20078;-46
2023/12/11 02:25:31;;;;;;;48.35;7.95;;;8.90;99.90;;;;;;5089146;28;20040;-46
2023/12/11 02:27:58;;;;;;;43.90;7.17;;;8.80;99.90;;;;;;5088609;28;20112;-45
2023/12/11 02:30:24;;;;;;;60.20;8.30;;;8.80;99.90;;;;;;5073024;28;20055;-45
2023/12/11 02:32:52;;;;;;;55.05;8.48;;;9.00;99.90;;;;;;5083302;28;20131;-45
2023/12/11 02:35:18;;;;;;;49.33;7.32;;;8.70;99.90;;;;;;5082186;28;20043;-45
2023/12/11 02:37:44;;;;;;;60.75;8.38;;;;;;;;;;5083009;28;20140;-46
2023/12/11 02:40:10;;;;;;;46.78;8.10;;;8.70;99.90;;;;;;5087643;28;20040;-46
2023/12/11 02:42:36;;;;;;;54.70;7.63;;;8.80;99.90;;;;;;5084384;28;20039;-44
2023/12/11 02:45:01;;;;;;;52.97;7.68;;;8.90;99.90;;;;;;5085562;28;20055;-45
2023/12/11 02:47:27;;;;;;;46.60;6.90;;;8.80;99.90;;;;;;5084033;28;20036;-46
2023/12/11 02:49:52;;;;;;;52.90;7.93;;;9.00;99.90;;;;;;5083343;28;20032;-45
2023/12/11 02:52:18;;;;;;;52.42;8.32;;;8.90;99.90;;;;;;5087720;28;20044;-45
2023/12/11 02:54:44;;;;;;;46.95;7.35;;;9.00;99.90;;;;;;5089392;28;20036;-45
2023/12/11 02:57:10;;;;;;;48.70;7.97;;;8.90;99.90;;;;;;5086795;28;20465;-47
2023/12/11 02:59:36;;;;;;;46.72;7.93;;;8.80;99.90;;;;;;5081734;28;20068;-45
2023/12/11 03:02:02;;;;;;;56.75;8.32;;;9.00;99.90;;;;;;5079803;28;20114;-45
2023/12/11 03:04:27;;;;;;;55.30;8.07;;;9.00;99.90;;;;;;5083133;28;20512;-46
2023/12/11 03:06:53;;;;;;;56.95;8.02;;;9.10;99.90;;;;;;5079948;28;20044;-45
2023/12/11 03:09:18;;;;;;;50.35;9.00;;;9.10;99.90;;;;;;5084040;28;20428;-46
2023/12/11 03:11:44;;;;;;;54.53;8.77;;;9.00;99.90;;;;;;5067486;28;20055;-45
2023/12/11 03:14:10;;;;;;;52.75;8.00;;;9.10;99.90;;;;;;5085403;28;20032;-47
2023/12/11 03:16:35;;;;;;;55.55;8.18;;;9.30;99.90;;;;;;5086918;28;20036;-46
2023/12/11 03:19:01;;;;;;;51.33;8.50;;;9.10;99.90;;;;;;5085108;28;20374;-48
2023/12/11 03:21:27;;;;;;;52.05;8.85;;;9.10;99.90;;;;;;5083352;28;20509;-44
2023/12/11 03:23:52;;;;;;;57.47;8.23;;;9.30;99.90;;;;;;5083324;28;20147;-46
2023/12/11 03:26:18;;;;;;;46.38;8.13;;;9.00;99.90;;;;;;5086032;28;20036;-45
2023/12/11 03:28:44;;;;;;;45.00;7.40;;;9.10;99.90;;;;;;5087185;28;20036;-46
2023/12/11 03:31:10;;;;;;;47.72;7.60;;;9.30;99.90;;;;;;5088606;28;20428;-45
2023/12/11 03:33:35;;;;;;;40.72;7.40;;;9.20;99.90;;;;;;5082770;28;20090;-45
2023/12/11 03:36:01;;;;;;;47.97;8.25;;;9.20;99.90;;;;;;5082777;28;20038;-45
2023/12/11 03:38:27;;;;;;;42.03;7.63;;;9.20;99.90;;;;;;5081116;28;20513;-45
2023/12/11 03:40:52;;;;;;;42.95;7.25;;;9.10;99.90;;;;;;5087269;28;20186;-45
2023/12/11 03:43:18;;;;;;;38.97;6.60;;;9.20;99.90;;;;;;5082819;28;20048;-45
2023/12/11 03:45:44;;;;;;;40.25;6.78;;;;;;;;;;5083372;28;20405;-45
2023/12/11 03:48:10;;;;;;;40.97;7.78;;;9.10;99.90;;;;;;5084606;28;20499;-45
2023/12/11 03:50:35;;;;;;;37.58;6.63;;;9.00;99.90;;;;;;5084270;28;20181;-44
2023/12/11 03:53:01;;;;;;;39.90;7.22;;;9.10;99.90;;;;;;5085094;28;20051;-44
2023/12/11 03:55:27;;;;;;;42.30;6.95;;;9.00;99.90;;;;;;5087256;28;20340;-46
2023/12/11 03:57:52;;;;;;;31.80;5.55;;;9.00;99.90;;;;;;5089844;28;20032;-44
2023/12/11 04:00:18;;;;;;;35.95;5.80;;;9.00;99.90;;;;;;5082182;28;20036;-45
2023/12/11 04:02:43;;;;;;;36.47;6.03;;;9.00;99.90;;;;;;5082574;28;20123;-47
2023/12/11 04:05:09;;;;;;;35.00;5.43;;;9.00;99.90;;;;;;5080020;28;20086;-45
2023/12/11 04:07:35;;;;;;;35.33;5.30;;;8.90;99.90;;;;;;5082535;28;20051;-45
2023/12/11 04:10:03;;;;;;;34.55;5.88;;;9.00;99.90;;;;;;5084968;28;20043;-44
2023/12/11 04:12:28;;;;;;;32.65;5.70;;;9.00;99.90;;;;;;5087003;28;20401;-45
2023/12/11 04:14:54;;;;;;;33.65;5.50;;;9.00;99.90;;;;;;5087054;28;20048;-45
2023/12/11 04:17:20;;;;;;;35.78;5.30;;;9.00;99.90;;;;;;5085822;28;20040;-44
2023/12/11 04:19:45;;;;;;;31.38;5.40;;;9.00;99.90;;;;;;5081912;28;20122;-47
2023/12/11 04:22:11;;;;;;;32.90;5.35;;;9.00;99.90;;;;;;5082707;28;20501;-46
2023/12/11 04:24:36;;;;;;;34.15;5.82;;;9.00;99.90;;;;;;5083329;28;21997;-46
2023/12/11 04:27:02;;;;;;;36.08;5.85;;;9.00;99.90;;;;;;5084626;28;20093;-46
2023/12/11 04:29:28;;;;;;;25.25;4.82;;;9.00;99.90;;;;;;5085521;28;20457;-48
2023/12/11 04:31:54;;;;;;;30.98;5.35;;;9.00;99.90;;;;;;5077261;28;21218;-47
2023/12/11 04:34:20;;;;;;;28.90;5.38;;;9.00;99.90;;;;;;5077966;28;20045;-45
2023/12/11 04:36:46;;;;;;;30.77;5.07;;;9.00;99.90;;;;;;5080894;28;20845;-48
2023/12/11 04:39:12;;;;;;;23.92;4.50;;;9.00;99.90;;;;;;5078079;28;20047;-47
2023/12/11 04:41:38;;;;;;;27.25;5.22;;;9.00;99.90;;;;;;5080146;28;20450;-45
2023/12/11 04:44:04;;;;;;;29.52;5.25;;;9.10;99.90;;;;;;5078195;28;20055;-45
2023/12/11 04:46:30;;;;;;;40.75;5.68;;;9.10;99.90;;;;;;5077374;28;20058;-45
2023/12/11 04:48:56;;;;;;;27.13;4.93;;;9.10;99.90;;;;;;5079375;28;20048;-47
2023/12/11 04:51:22;;;;;;;29.63;5.72;;;9.10;99.90;;;;;;5078081;28;20401;-46
2023/12/11 04:53:47;;;;;;;25.52;5.22;;;9.10;99.90;;;;;;5081544;28;20416;-45
2023/12/11 04:56:13;;;;;;;28.00;4.60;;;9.10;99.90;;;;;;5081934;28;20048;-47
2023/12/11 04:58:38;;;;;;;34.75;5.63;;;9.10;99.90;;;;;;5086950;28;20043;-45
2023/12/11 05:01:04;;;;;;;31.35;5.72;;;9.10;99.90;;;;;;5084099;28;20044;-45
2023/12/11 05:03:30;;;;;;;28.42;5.22;;;9.10;99.90;;;;;;5083955;28;20135;-47
2023/12/11 05:05:56;;;;;;;28.75;5.20;;;9.10;99.90;;;;;;5080716;28;20401;-47
2023/12/11 05:08:22;;;;;;;32.63;5.65;;;9.10;99.90;;;;;;5083876;28;20041;-49
2023/12/11 05:10:47;;;;;;;37.97;5.93;;;9.00;99.90;;;;;;5083373;28;20038;-48
2023/12/11 05:13:13;;;;;;;37.17;6.38;;;9.00;99.90;;;;;;5081050;28;20047;-47
2023/12/11 05:15:38;;;;;;;40.00;6.22;;;9.00;99.90;;;;;;5085660;28;20066;-46
2023/12/11 05:18:04;;;;;;;39.38;5.72;;;9.00;99.90;;;;;;5079344;28;20043;-48
2023/12/11 05:20:30;;;;;;;37.50;6.20;;;9.00;99.90;;;;;;5083594;28;20051;-44
2023/12/11 05:22:55;;;;;;;40.97;6.30;;;9.00;99.90;;;;;;5082114;28;20047;-45
2023/12/11 05:25:21;;;;;;;40.13;6.65;;;9.00;99.90;;;;;;5082758;28;20047;-44
2023/12/11 05:27:47;;;;;;;47.22;6.70;;;9.00;99.90;;;;;;5084432;28;20040;-45
2023/12/11 05:30:12;;;;;;;38.67;6.50;;;9.00;99.90;;;;;;5085702;28;20382;-44
2023/12/11 05:32:38;;;;;;;38.58;6.13;;;9.00;99.90;;;;;;5082907;28;20048;-44
2023/12/11 05:35:06;;;;;;;57.13;7.30;;;8.90;99.90;;;;;;5082241;28;20089;-45
2023/12/11 05:37:31;;;;;;;41.50;6.40;;;9.00;99.90;;;;;;5086367;28;20047;-44
2023/12/11 05:39:57;;;;;;;42.92;5.97;;;8.90;99.90;;;;;;5062685;28;20048;-45
2023/12/11 05:42:23;;;;;;;41.55;6.57;;;8.90;99.90;;;;;;5078034;28;20048;-45
2023/12/11 05:44:48;;;;;;;37.13;6.93;;;8.90;99.90;;;;;;5076206;28;20047;-45
2023/12/11 05:47:14;;;;;;;36.60;6.68;;;8.90;99.90;;;;;;5089483;28;20047;-44
2023/12/11 05:49:40;;;;;;;46.38;7.18;;;8.90;99.90;;;;;;5081714;28;20549;-45
2023/12/11 05:52:05;;;;;;;46.58;7.18;;;8.90;99.90;;;;;;5083663;28;20397;-45
2023/12/11 05:54:31;;;;;;;37.47;6.53;;;8.90;99.90;;;;;;5080219;28;20450;-44
2023/12/11 05:56:57;;;;;;;39.67;5.80;;;8.90;99.90;;;;;;5083245;28;20092;-44
2023/12/11 05:59:22;;;;;;;41.25;6.63;;;8.90;99.90;;;;;;5087011;28;20101;-45
2023/12/11 06:01:48;;;;;;;40.28;6.22;;;8.90;99.90;;;;;;5068504;28;20147;-43
2023/12/11 06:04:14;;;;;;;40.47;6.80;;;8.90;99.90;;;;;;5083680;28;20059;-45
2023/12/11 06:06:39;;;;;;;39.08;6.82;;;8.90;99.90;;;;;;5083350;28;20043;-45
2023/12/11 06:09:05;;;;;;;36.67;5.95;;;8.90;99.90;;;;;;5081776;28;20119;-46
2023/12/11 06:11:31;;;;;;;34.75;5.68;;;8.90;99.90;;;;;;5081243;28;20123;-45
2023/12/11 06:13:57;;;;;;;44.08;6.75;;;8.80;99.90;;;;;;5080365;28;20047;-45
2023/12/11 06:16:22;;;;;;;40.20;5.70;;;8.80;99.90;;;;;;5079591;28;20083;-44
2023/12/11 06:18:48;;;;;;;39.45;5.68;;;8.90;99.90;;;;;;5085891;28;20068;-44
2023/12/11 06:21:20;;;;;;;36.95;6.13;;;8.90;99.90;;;;;;5082127;28;20772;-45
2023/12/11 06:23:47;;;;;;;42.58;6.18;;;8.90;99.90;;;;;;5081897;28;20112;-44
2023/12/11 06:26:34;;;;;;;39.35;6.38;;;8.90;99.90;;;;;;5081005;28;20044;-44
2023/12/11 06:29:00;;;;;;;35.05;5.68;;;8.90;99.90;;;;;;5082294;28;20040;-45
2023/12/11 06:31:27;;;;;;;36.95;6.47;;;8.90;99.90;;;;;;5081443;28;20052;-45
2023/12/11 06:33:53;;;;;;;33.08;6.15;;;8.90;99.90;;;;;;5085197;28;20401;-45
2023/12/11 06:36:21;;;;;;;35.47;5.82;;;8.90;99.90;;;;;;5083679;28;20036;-45
2023/12/11 06:38:48;;;;;;;39.47;5.55;;;8.90;99.90;;;;;;5084576;28;20067;-46
2023/12/11 06:41:14;;;;;;;36.28;6.07;;;8.90;99.90;;;;;;5081493;28;20489;-45
2023/12/11 06:43:39;;;;;;;38.05;6.40;;;8.90;99.90;;;;;;5081175;28;20036;-45
2023/12/11 06:46:05;;;;;;;36.63;5.63;;;8.90;99.90;;;;;;5084241;28;20047;-45
2023/12/11 06:48:31;;;;;;;39.17;5.53;;;8.80;99.90;;;;;;5082906;28;20044;-46
2023/12/11 06:50:56;;;;;;;40.08;5.90;;;8.80;99.90;;;;;;5081336;28;20101;-46
2023/12/11 06:53:22;;;;;;;42.13;5.82;;;8.90;99.90;;;;;;5079628;28;20067;-44
2023/12/11 06:55:48;;;;;;;43.33;6.68;;;8.90;99.90;;;;;;5079137;28;20067;-44
2023/12/11 06:58:14;;;;;;;35.83;6.05;;;8.90;99.90;;;;;;5081710;28;20072;-45
2023/12/11 07:00:39;;;;;;;34.60;5.68;;;8.90;99.90;;;;;;5085025;28;20044;-45
2023/12/11 07:03:05;;;;;;;31.17;5.03;;;8.90;99.90;;;;;;5085743;28;20068;-45
2023/12/11 07:05:31;;;;;;;50.80;6.68;;;8.90;99.90;;;;;;5082607;28;20044;-44
2023/12/11 07:07:57;;;;;;;37.30;5.45;;;8.90;99.90;;;;;;5083654;28;20066;-44
2023/12/11 07:10:23;;;;;;;34.67;6.35;;;8.90;99.90;;;;;;5065953;28;20477;-44
2023/12/11 07:12:49;;;;;;;38.90;5.35;;;8.90;99.90;;;;;;5082712;28;20407;-44
2023/12/11 07:15:15;;;;;;;44.50;6.07;;;8.90;99.90;;;;;;5083293;28;20405;-44
2023/12/11 07:17:40;;;;;;;29.63;4.97;;;8.90;99.90;;;;;;5083371;28;20074;-46
2023/12/11 07:20:07;;;;;;;29.27;5.90;;;8.80;99.90;;;;;;5083566;28;20382;-44
2023/12/11 07:22:34;;;;;;;41.50;5.05;;;8.90;99.90;;;;;;5082151;28;20036;-45
2023/12/11 07:25:00;;;;;;;44.83;5.50;;;8.80;99.90;;;;;;5080007;28;20059;-45
2023/12/11 07:27:26;;;;;;;31.95;5.88;;;8.80;99.90;;;;;;5080293;28;20488;-43
2023/12/11 07:29:51;;;;;;;34.83;5.15;;;8.80;99.90;;;;;;5079369;28;20085;-44
2023/12/11 07:32:18;;;;;;;39.05;5.95;;;8.80;99.90;;;;;;5080296;28;20048;-46
2023/12/11 07:34:44;;;;;;;29.55;5.57;;;8.80;99.90;;;;;;5076968;28;20119;-45
2023/12/11 07:37:10;;;;;;;34.85;5.63;;;8.80;99.90;;;;;;5084027;28;20123;-44
2023/12/11 07:39:35;;;;;;;33.35;5.85;;;8.80;99.90;;;;;;5083102;28;20059;-45
2023/12/11 07:42:01;;;;;;;28.63;5.45;;;8.80;99.90;;;;;;5086613;28;20040;-45
2023/12/11 07:44:27;;;;;;;31.33;5.35;;;8.80;99.90;;;;;;5080749;28;20485;-46
2023/12/11 07:46:52;;;;;;;30.58;4.70;;;8.80;99.90;;;;;;5081316;28;20039;-48
2023/12/11 07:49:18;;;;;;;29.38;5.35;;;8.90;99.90;;;;;;5083263;28;20127;-45
2023/12/11 07:51:44;;;;;;;24.42;5.07;;;8.90;99.90;;;;;;5084451;28;20048;-46
2023/12/11 07:54:10;;;;;;;30.02;5.35;;;8.80;99.90;;;;;;5087343;28;20044;-45
2023/12/11 07:56:37;;;;;;;26.58;4.93;;;8.90;99.90;;;;;;5088102;28;20159;-44
2023/12/11 07:59:02;;;;;;;34.42;5.18;;;8.90;99.90;;;;;;5089660;28;20062;-48
2023/12/11 08:01:31;;;;;;;24.40;5.05;;;8.80;99.90;;;;;;5089462;28;20490;-45
2023/12/11 08:03:58;;;;;;;24.15;4.43;;;8.80;99.90;;;;;;5092087;28;20409;-48
2023/12/11 08:06:24;;;;;;;23.23;4.68;;;8.90;99.90;;;;;;5088693;28;20047;-45
2023/12/11 08:08:50;;;;;;;27.90;4.80;;;8.80;99.90;;;;;;5087242;28;20115;-45
2023/12/11 08:11:29;;;;;;;19.75;3.65;;;8.80;99.90;;;;;;5083085;28;20618;-44
2023/12/11 08:13:55;;;;;;;20.02;4.13;;;8.90;99.90;;;;;;5086314;28;20047;-46
2023/12/11 08:16:22;;;;;;;22.02;4.03;;;8.90;99.90;;;;;;5068001;28;20465;-44
2023/12/11 08:18:48;;;;;;;20.80;3.47;;;8.90;99.90;;;;;;5085134;28;20094;-46
2023/12/11 08:21:16;;;;;;;24.30;3.80;;;8.90;99.90;;;;;;5065059;28;20078;-45
2023/12/11 08:23:47;;;;;;;18.77;3.90;;;8.80;99.90;;;;;;5081052;28;20043;-45
2023/12/11 08:26:20;;;;;;;16.17;3.13;;;8.90;99.90;;;;;;5081329;28;20036;-44
2023/12/11 08:28:47;;;;;;;17.70;3.20;;;8.90;99.90;;;;;;5086986;28;20044;-45
2023/12/11 08:31:12;;;;;;;13.77;2.90;;;8.90;99.90;;;;;;5084826;28;20052;-45
2023/12/11 08:33:38;;;;;;;17.92;3.25;;;8.90;99.90;;;;;;5088526;28;20040;-44
2023/12/11 08:36:05;;;;;;;14.05;2.70;;;8.90;99.90;;;;;;5083322;28;20516;-46
2023/12/11 08:38:31;;;;;;;12.52;2.60;;;8.80;99.90;;;;;;5068430;28;20123;-45
2023/12/11 08:40:57;;;;;;;13.10;2.55;;;8.90;99.90;;;;;;5088595;28;20068;-44
2023/12/11 08:43:23;;;;;;;13.13;2.55;;;8.90;99.90;;;;;;5084276;28;20435;-46
2023/12/11 08:45:49;;;;;;;11.30;2.17;;;8.90;99.90;;;;;;5087686;28;20059;-45
2023/12/11 08:48:14;;;;;;;11.25;2.50;;;8.80;99.90;;;;;;5084738;28;20131;-47
2023/12/11 08:50:40;;;;;;;12.95;2.30;;;8.90;99.90;;;;;;5086747;28;20044;-45
2023/12/11 08:53:06;;;;;;;7.20;2.00;;;8.90;99.90;;;;;;5084310;28;20040;-45
2023/12/11 08:55:32;;;;;;;8.68;2.10;;;8.90;99.90;;;;;;5086763;28;20052;-46
2023/12/11 08:57:58;;;;;;;10.73;2.10;;;8.90;99.90;;;;;;5087095;28;20405;-46
2023/12/11 09:00:24;;;;;;;11.10;1.90;;;8.90;99.90;;;;;;5068818;28;20044;-45
2023/12/11 09:02:51;;;;;;;11.30;2.28;;;8.90;99.90;;;;;;5077868;28;20179;-45
2023/12/11 09:05:17;;;;;;;8.98;2.10;;;8.90;99.90;;;;;;5079050;28;20047;-46
2023/12/11 09:07:42;;;;;;;10.85;3.25;;;8.90;99.90;;;;;;5091493;28;20506;-45
2023/12/11 09:10:09;;;;;;;10.10;2.42;;;8.90;99.90;;;;;;5089014;28;20036;-47
2023/12/11 09:12:36;;;;;;;11.95;2.92;;;8.80;99.90;;;;;;5089267;28;20051;-44
2023/12/11 09:15:03;;;;;;;7.95;2.30;;;8.90;99.90;;;;;;5088700;28;20025;-47
2023/12/11 09:17:29;;;;;;;14.32;3.03;;;8.90;99.90;;;;;;5086982;28;20100;-45
2023/12/11 09:19:55;;;;;;;12.02;3.10;;;8.90;99.90;;;;;;5090558;28;20032;-46
2023/12/11 09:22:21;;;;;;;12.07;2.95;;;8.90;99.90;;;;;;5087951;28;20067;-45
2023/12/11 09:24:46;;;;;;;20.58;3.58;;;8.90;99.90;;;;;;5090005;28;20050;-45
2023/12/11 09:27:12;;;;;;;15.85;3.80;;;8.90;99.90;;;;;;5088882;28;20048;-45
2023/12/11 09:29:38;;;;;;;16.10;3.97;;;9.00;99.90;;;;;;5073410;28;20032;-46
2023/12/11 09:32:04;;;;;;;18.27;3.67;;;9.00;99.90;;;;;;5090262;28;20109;-49
2023/12/11 09:34:30;;;;;;;19.77;3.80;;;9.00;99.90;;;;;;5089278;28;20370;-44
2023/12/11 09:36:57;;;;;;;14.98;3.40;;;9.10;99.90;;;;;;5088479;28;20039;-47
2023/12/11 09:39:23;;;;;;;16.58;4.70;;;9.10;99.90;;;;;;5089441;28;20059;-45
2023/12/11 09:41:49;;;;;;;18.52;3.33;;;9.20;99.90;;;;;;5087357;28;20040;-44
2023/12/11 09:44:16;;;;;;;26.08;4.22;;;9.10;99.90;;;;;;5085042;28;20040;-47
2023/12/11 09:46:52;;;;;;;26.58;4.30;;;9.10;99.90;;;;;;5088536;28;20044;-45
2023/12/11 09:49:18;;;;;;;18.23;3.58;;;9.20;99.90;;;;;;5088871;28;20043;-46
2023/12/11 09:51:44;;;;;;;16.13;3.05;;;9.20;99.90;;;;;;5089141;28;20032;-44
2023/12/11 09:54:11;;;;;;;19.70;3.42;;;9.20;99.90;;;;;;5087231;28;20036;-47
2023/12/11 09:56:39;;;;;;;12.88;2.97;;;9.20;99.90;;;;;;5086806;28;20059;-48
2023/12/11 09:59:05;;;;;;;19.25;3.10;;;9.20;99.90;;;;;;5088817;28;20093;-44
2023/12/11 10:01:32;;;;;;;13.68;2.97;;;9.20;99.90;;;;;;5088552;28;20404;-45
2023/12/11 10:03:57;;;;;;;17.20;2.60;;;9.20;99.90;;;;;;5084970;28;20048;-45
2023/12/11 10:06:23;;;;;;;21.10;3.03;;;9.20;99.90;;;;;;5086849;28;20117;-45
2023/12/11 10:08:53;;;;;;;17.95;2.67;;;9.30;99.90;;;;;;5086232;28;20417;-44
2023/12/11 10:11:22;;;;;;;17.83;3.08;;;9.40;99.90;;;;;;5070094;28;20445;-45
2023/12/11 10:13:49;;;;;;;18.10;2.90;;;9.40;99.90;;;;;;5087230;28;20051;-46
2023/12/11 10:16:29;;;;;;;19.15;3.30;;;9.40;99.90;;;;;;5087865;28;20404;-46
2023/12/11 10:18:55;;;;;;;21.40;3.83;;;9.40;99.90;;;;;;5088921;28;20424;-44
2023/12/11 10:21:27;;;;;;;14.48;2.83;;;9.40;99.90;;;;;;5089603;28;20059;-45
2023/12/11 10:24:06;;;;;;;20.35;3.30;;;9.40;99.90;;;;;;5091630;28;20036;-47
2023/12/11 10:26:35;;;;;;;18.38;3.28;;;9.50;99.90;;;;;;5091423;28;20132;-47
2023/12/11 10:29:21;;;;;;;18.95;2.50;;;9.60;99.90;;;;;;5068079;28;20424;-48
2023/12/11 10:31:47;;;;;;;18.83;3.08;;;9.60;99.90;;;;;;5072729;28;20049;-45
2023/12/11 10:34:13;;;;;;;17.95;3.67;;;9.50;99.90;;;;;;5087182;28;20063;-46
2023/12/11 10:36:49;;;;;;;12.82;2.42;;;9.50;99.90;;;;;;5094235;28;20101;-47
2023/12/11 10:39:15;;;;;;;15.95;2.72;;;9.50;99.90;;;;;;5094771;28;20067;-45
2023/12/11 10:41:44;;;;;;;17.35;2.55;;;9.50;99.90;;;;;;5094758;28;20040;-47
2023/12/11 10:44:26;;;;;;;14.00;2.97;;;9.60;99.90;;;;;;5094861;28;20051;-47
2023/12/11 10:46:55;;;;;;;14.90;3.33;;;9.50;99.90;;;;;;5081585;28;20072;-45
2023/12/11 10:49:24;;;;;;;16.58;2.95;;;9.50;99.90;;;;;;5089889;28;20032;-44
2023/12/11 10:51:50;;;;;;;19.65;3.03;;;9.40;99.90;;;;;;5093680;28;20036;-46
2023/12/11 10:54:16;;;;;;;19.27;3.38;;;9.40;99.90;;;;;;5093946;28;20046;-49
2023/12/11 10:56:45;;;;;;;23.17;3.53;;;9.40;99.90;;;;;;5094660;28;20044;-48
2023/12/11 10:59:11;;;;;;;18.02;3.28;;;9.30;99.90;;;;;;5093450;28;20115;-49
2023/12/11 11:01:41;;;;;;;19.08;3.20;;;9.40;99.90;;;;;;5095073;28;20371;-44
2023/12/11 11:04:09;;;;;;;23.60;3.78;;;9.30;99.90;;;;;;5087848;28;20505;-45
2023/12/11 11:06:38;;;;;;;;;;;9.40;99.90;;;;;;5094064;28;20024;-45
2023/12/11 11:09:10;;;;;;;20.17;3.42;;;9.30;99.90;;;;;;5088452;28;19920;-44
2023/12/11 11:11:44;;;;;;;15.00;2.22;;;9.30;99.90;;;;;;5091034;28;20427;-49
2023/12/11 11:14:31;;;;;;;17.17;2.70;;;9.20;99.90;;;;;;5087278;28;20033;-45
2023/12/11 11:16:58;;;;;;;11.95;2.30;;;9.30;99.90;;;;;;5092652;28;20070;-46
2023/12/11 11:19:24;;;;;;;16.45;2.53;;;9.30;99.90;;;;;;5085637;28;20499;-46
2023/12/11 11:22:06;;;;;;;13.38;2.47;;;9.40;99.90;;;;;;5091341;28;20071;-45
2023/12/11 11:24:34;;;;;;;14.63;2.63;;;9.40;99.90;;;;;;5092202;28;20055;-47
2023/12/11 11:27:23;;;;;;;16.17;2.72;;;9.40;99.90;;;;;;5074717;28;20485;-45
2023/12/11 11:29:49;;;;;;;14.18;2.40;;;9.40;99.90;;;;;;5090702;28;20056;-45
2023/12/11 11:32:17;;;;;;;14.43;3.05;;;9.40;99.90;;;;;;5092730;28;20051;-46
2023/12/11 11:34:43;;;;;;;;;;;9.40;99.90;;;;;;5092614;28;20044;-45
2023/12/11 11:37:14;;;;;;;15.18;3.17;;;9.40;99.90;;;;;;5092449;28;20382;-46
2023/12/11 11:39:57;;;;;;;19.92;3.42;;;9.30;99.90;;;;;;5093073;28;20052;-46
2023/12/11 11:42:24;;;;;;;22.38;3.63;;;9.30;99.90;;;;;;5092398;28;20043;-45
2023/12/11 11:44:57;;;;;;;21.90;4.88;;;9.30;99.90;;;;;;5092555;28;20040;-44
2023/12/11 11:47:23;;;;;;;25.55;4.82;;;9.30;99.90;;;;;;5091668;28;20036;-45
2023/12/11 11:49:49;;;;;;;23.15;4.07;;;9.20;99.90;;;;;;5074005;28;20121;-46
2023/12/11 11:52:27;;;;;;;29.90;5.00;;;9.20;99.90;;;;;;5093366;28;20068;-44
2023/12/11 11:55:15;;;;;;;26.90;5.35;;;9.10;99.90;;;;;;5092580;28;20036;-45
2023/12/11 11:57:41;;;;;;;30.75;5.03;;;9.10;99.90;;;;;;5078715;28;20190;-45
2023/12/11 12:00:07;;;;;;;22.77;4.32;;;9.10;99.90;;;;;;5093724;28;20471;-47
2023/12/11 12:02:32;;;;;;;22.58;3.50;;;9.00;99.90;;;;;;5091326;28;20121;-46
2023/12/11 12:05:08;;;;;;;20.08;4.05;;;9.00;99.90;;;;;;5090762;28;20064;-45
2023/12/11 12:07:38;;;;;;;16.02;3.80;;;9.00;99.90;;;;;;5092424;28;20037;-44
2023/12/11 12:10:05;;;;;;;23.23;3.95;;;9.00;99.90;;;;;;5090810;28;20111;-48
2023/12/11 12:12:32;;;;;;;22.13;3.88;;;9.10;99.90;;;;;;5090796;28;20252;-45
2023/12/11 12:15:07;;;;;;;18.90;3.80;;;9.20;99.90;;;;;;5091808;28;20036;-48
2023/12/11 12:17:33;;;;;;;19.20;3.10;;;9.20;99.90;;;;;;5089862;28;20136;-48
2023/12/11 12:20:08;;;;;;;19.90;3.60;;;9.20;99.90;;;;;;5090603;28;20074;-46
2023/12/11 12:22:34;;;;;;;14.27;2.85;;;9.30;99.90;;;;;;5090933;28;20032;-48
2023/12/11 12:24:59;;;;;;;15.75;4.00;;;9.30;99.90;;;;;;5090459;28;20044;-46
2023/12/11 12:27:26;;;;;;;14.68;2.60;;;9.20;99.90;;;;;;5090281;28;20047;-45
2023/12/11 12:29:52;;;;;;;13.52;3.17;;;9.20;99.90;;;;;;5090160;28;20052;-45
2023/12/11 12:32:18;;;;;;;15.10;2.60;;;9.20;99.90;;;;;;5091209;28;20055;-46
2023/12/11 12:34:46;;;;;;;16.42;2.60;;;9.30;99.90;;;;;;5091497;28;20067;-44
2023/12/11 12:37:13;;;;;;;14.77;2.58;;;9.30;99.90;;;;;;5089696;28;20040;-44
2023/12/11 12:39:39;;;;;;;12.38;2.47;;;9.30;99.90;;;;;;5090592;28;20044;-45
2023/12/11 12:42:05;;;;;;;11.80;2.30;;;9.30;99.90;;;;;;5090647;28;20036;-45
2023/12/11 12:44:37;;;;;;;9.95;1.77;;;9.30;99.90;;;;;;5091300;28;20078;-46
2023/12/11 12:47:03;;;;;;;11.52;1.85;;;9.30;99.90;;;;;;5090527;28;20035;-44
2023/12/11 12:49:32;;;;;;;9.10;1.80;;;9.20;99.90;;;;;;5091684;28;20046;-46
2023/12/11 12:51:58;;;;;;;9.18;2.03;;;9.20;99.90;;;;;;5092124;28;20050;-45